Time;durP1;ratioP1;P1;durP2;ratioP2;P2;SDS_P1;SDS_P2;PMS_P1;PMS_P2;Temp;Humidity;BMP_temperature;BMP_pressure;BME280_temperature;BME280_humidity;BME280_pressure;Samples;Min_cycle;Max_cycle;Signal;HPM_P1;HPM_P2
2021/10/31 00:09:16;;;;;;;0.80;0.33;;;17.40;99.90;;;;;;20912842;28;20260;-69
2021/10/31 00:19:20;;;;;;;0.40;0.40;;;17.50;99.90;;;;;;20912928;28;20228;-70
2021/10/31 00:29:25;;;;;;;0.57;0.57;;;17.50;99.90;;;;;;20910734;28;20316;-69
2021/10/31 00:39:29;;;;;;;0.30;0.23;;;17.50;99.90;;;;;;20906729;28;20197;-69
2021/10/31 00:49:34;;;;;;;0.60;0.60;;;17.40;99.90;;;;;;20902462;28;20253;-69
2021/10/31 00:59:38;;;;;;;0.20;0.10;;;17.30;99.90;;;;;;20906120;28;20229;-68
2021/10/31 01:09:55;;;;;;;0.30;0.30;;;17.30;99.90;;;;;;20907957;28;20322;-69
2021/10/31 01:20:15;;;;;;;0.20;0.10;;;17.30;99.90;;;;;;20907277;28;20443;-69
2021/10/31 01:30:29;;;;;;;0.20;0.00;;;17.30;99.90;;;;;;20896974;28;20217;-70
2021/10/31 01:40:44;;;;;;;1.63;0.77;;;17.20;99.90;;;;;;20906239;28;20228;-69
2021/10/31 01:50:54;;;;;;;0.20;0.20;;;17.20;99.90;;;;;;20905696;28;20225;-69
2021/10/31 02:01:01;;;;;;;0.20;0.10;;;17.00;99.90;;;;;;20968861;22;20235;-78
2021/10/31 02:11:08;;;;;;;0.20;0.20;;;17.00;99.90;;;;;;21066538;28;20205;-79
2021/10/31 02:21:15;;;;;;;0.93;0.17;;;17.00;99.90;;;;;;21021166;28;20197;-79
2021/10/31 02:31:20;;;;;;;0.20;0.10;;;16.90;99.90;;;;;;21053075;28;20196;-78
2021/10/31 02:41:23;;;;;;;0.20;0.10;;;16.90;99.90;;;;;;21113318;28;20195;-78
2021/10/31 02:51:42;;;;;;;0.20;0.10;;;17.00;99.90;;;;;;21155652;28;20294;-77
2021/10/31 03:01:47;;;;;;;0.37;0.30;;;16.90;99.90;;;;;;21153526;28;20552;-76
2021/10/31 03:11:59;;;;;;;0.30;0.13;;;17.00;99.90;;;;;;21153352;28;20203;-76
2021/10/31 03:22:04;;;;;;;0.20;0.10;;;17.20;99.90;;;;;;21152755;28;20257;-76
2021/10/31 03:32:10;;;;;;;0.57;0.50;;;17.40;99.90;;;;;;21151702;28;20223;-76
2021/10/31 03:42:13;;;;;;;0.20;0.07;;;17.40;99.90;;;;;;21101709;28;20302;-78
2021/10/31 03:52:20;;;;;;;0.20;0.00;;;17.50;99.90;;;;;;21067329;28;20218;-77
2021/10/31 04:02:23;;;;;;;0.30;0.30;;;17.50;99.90;;;;;;21067870;28;20246;-78
2021/10/31 04:12:28;;;;;;;0.20;0.10;;;17.30;99.90;;;;;;21065278;28;20208;-77
2021/10/31 04:22:32;;;;;;;0.23;0.10;;;17.40;99.90;;;;;;21047498;28;20224;-77
2021/10/31 04:32:37;;;;;;;0.20;0.10;;;17.30;99.90;;;;;;21065861;28;20203;-77
2021/10/31 04:42:42;;;;;;;0.40;0.40;;;17.30;99.90;;;;;;21122432;28;20245;-77
2021/10/31 04:52:47;;;;;;;0.27;0.27;;;17.10;99.90;;;;;;21165140;28;20194;-78
2021/10/31 05:02:51;;;;;;;0.20;0.00;;;17.10;99.90;;;;;;21145169;22;20267;-69
2021/10/31 05:12:58;;;;;;;0.23;0.23;;;16.90;99.90;;;;;;21076132;28;20195;-67
2021/10/31 05:23:03;;;;;;;0.30;0.30;;;16.60;99.90;;;;;;21075643;28;20715;-68
2021/10/31 05:33:08;;;;;;;0.20;0.10;;;16.50;99.90;;;;;;21057898;28;20188;-68
2021/10/31 05:43:11;;;;;;;0.20;0.10;;;16.50;99.90;;;;;;21074625;28;20299;-68
2021/10/31 05:53:17;;;;;;;0.20;0.10;;;16.30;99.90;;;;;;21074261;28;20199;-68
2021/10/31 06:03:21;;;;;;;0.30;0.20;;;16.30;99.90;;;;;;21073543;28;20240;-67
2021/10/31 06:13:26;;;;;;;0.30;0.20;;;15.90;99.90;;;;;;21055160;28;20199;-68
2021/10/31 06:23:31;;;;;;;0.20;0.00;;;15.80;99.90;;;;;;21071749;28;20444;-68
2021/10/31 06:33:37;;;;;;;0.20;0.10;;;15.80;99.90;;;;;;21071761;28;20200;-69
2021/10/31 06:43:41;;;;;;;0.20;0.00;;;15.70;99.90;;;;;;21070634;28;20224;-68
2021/10/31 06:53:46;;;;;;;0.20;0.00;;;15.90;99.90;;;;;;21069835;28;20284;-69
2021/10/31 07:03:50;;;;;;;0.30;0.20;;;16.00;99.90;;;;;;21048938;28;20716;-68
2021/10/31 07:13:55;;;;;;;0.20;0.00;;;16.10;99.90;;;;;;21067323;28;20192;-69
2021/10/31 07:23:58;;;;;;;0.23;0.13;;;16.40;99.90;;;;;;21066516;28;20697;-68
2021/10/31 07:34:13;;;;;;;0.20;0.00;;;16.50;99.90;;;;;;21067325;28;20522;-69
2021/10/31 07:44:17;;;;;;;0.20;0.00;;;16.90;99.90;;;;;;21066204;28;20220;-68
2021/10/31 07:54:25;;;;;;;4.63;1.20;;;17.10;99.90;;;;;;21064957;28;20237;-68
2021/10/31 08:04:29;;;;;;;2.73;0.63;;;17.40;99.90;;;;;;21064660;28;20323;-68
2021/10/31 08:14:34;;;;;;;4.03;0.40;;;18.00;99.90;;;;;;21064504;28;20217;-68
2021/10/31 08:24:38;;;;;;;9.03;1.03;;;18.30;99.90;;;;;;21081321;28;20248;-69
2021/10/31 08:34:43;;;;;;;0.47;0.30;;;18.60;99.90;;;;;;21061105;28;20199;-68
2021/10/31 08:44:46;;;;;;;0.70;0.23;;;18.90;99.90;;;;;;21078405;28;20224;-70
2021/10/31 08:54:51;;;;;;;2.63;0.40;;;19.30;99.90;;;;;;21077379;28;20597;-68
2021/10/31 09:04:55;;;;;;;0.20;0.10;;;19.60;99.90;;;;;;21076712;28;20474;-70
2021/10/31 09:15:00;;;;;;;1.00;0.60;;;19.90;99.90;;;;;;21074544;28;20223;-69
2021/10/31 09:25:05;;;;;;;0.30;0.30;;;20.20;99.90;;;;;;21054717;28;20211;-68
2021/10/31 09:35:10;;;;;;;0.33;0.33;;;20.70;99.90;;;;;;21071801;28;20201;-68
2021/10/31 09:45:14;;;;;;;0.70;0.30;;;20.70;99.90;;;;;;21073703;28;20315;-69
2021/10/31 09:55:23;;;;;;;0.20;0.15;;;20.90;99.90;;;;;;21037800;28;20721;-69
2021/10/31 10:05:29;;;;;;;0.20;0.13;;;21.20;99.90;;;;;;21053760;28;20318;-67
2021/10/31 10:15:34;;;;;;;0.20;0.20;;;21.90;99.90;;;;;;21071971;28;20220;-66
2021/10/31 10:25:42;;;;;;;0.68;0.50;;;22.20;99.90;;;;;;21051154;28;20226;-66
2021/10/31 10:35:52;;;;;;;0.95;0.65;;;22.70;99.90;;;;;;21069137;28;20681;-67
2021/10/31 10:46:10;;;;;;;3.75;0.88;;;23.60;99.90;;;;;;20981607;28;20265;-68
2021/10/31 10:56:15;;;;;;;7.10;0.98;;;22.80;99.90;;;;;;20983545;28;20195;-67
2021/10/31 11:06:19;;;;;;;0.40;0.38;;;23.20;99.90;;;;;;20985416;28;20779;-67
2021/10/31 11:16:24;;;;;;;0.35;0.35;;;23.00;99.90;;;;;;20982334;28;20197;-67
2021/10/31 11:26:30;;;;;;;2.33;0.90;;;23.70;99.90;;;;;;20982030;28;20688;-67
2021/10/31 11:36:35;;;;;;;1.95;1.23;;;24.50;99.90;;;;;;20982445;28;20224;-69
2021/10/31 11:46:40;;;;;;;1.25;1.15;;;24.60;99.90;;;;;;21064832;28;20251;-67
2021/10/31 11:56:50;;;;;;;0.85;0.65;;;25.20;99.90;;;;;;21063641;28;20245;-69
2021/10/31 12:06:54;;;;;;;0.90;0.88;;;25.50;99.90;;;;;;21045050;28;20227;-68
2021/10/31 12:17:00;;;;;;;1.30;1.10;;;24.80;99.90;;;;;;21062920;28;20278;-68
2021/10/31 12:27:11;;;;;;;1.45;0.40;;;25.20;99.90;;;;;;21062461;28;20220;-68
2021/10/31 12:37:29;;;;;;;0.88;0.88;;;25.10;99.90;;;;;;21045176;28;20212;-68
2021/10/31 12:47:39;;;;;;;0.73;0.65;;;25.00;99.90;;;;;;21061652;28;20227;-68
2021/10/31 12:57:52;;;;;;;2.85;1.00;;;26.30;99.90;;;;;;21061828;28;20282;-68
2021/10/31 13:07:57;;;;;;;0.35;0.35;;;25.80;99.90;;;;;;21070729;28;20318;-68
2021/10/31 13:18:03;;;;;;;0.75;0.35;;;26.30;99.90;;;;;;21055156;28;20656;-68
2021/10/31 13:28:18;;;;;;;0.40;0.40;;;25.80;99.90;;;;;;21074455;28;20318;-67
2021/10/31 13:38:23;;;;;;;0.52;0.30;;;25.40;99.90;;;;;;21056519;28;20756;-69
2021/10/31 13:59:05;;;;;;;2.05;0.82;;;26.90;99.90;;;;;;21057440;28;20275;-68
2021/10/31 14:09:11;;;;;;;0.50;0.30;;;26.30;99.90;;;;;;21053647;28;20644;-68
2021/10/31 14:19:19;;;;;;;0.30;0.25;;;27.00;99.90;;;;;;21070479;28;20524;-66
2021/10/31 14:29:23;;;;;;;0.20;0.20;;;28.50;99.90;;;;;;21050082;28;20313;-66
2021/10/31 14:39:35;;;;;;;0.38;0.38;;;26.30;99.90;;;;;;21066833;28;20206;-68
2021/10/31 14:49:39;;;;;;;2.25;0.30;;;26.00;99.90;;;;;;21066058;28;20532;-66
2021/10/31 14:59:49;;;;;;;1.05;0.60;;;28.00;99.90;;;;;;21086328;28;20224;-67
2021/10/31 15:09:53;;;;;;;1.10;0.30;;;27.20;99.90;;;;;;21068246;28;20587;-66
2021/10/31 15:19:58;;;;;;;0.65;0.17;;;24.60;99.90;;;;;;21064718;28;20218;-65
2021/10/31 15:30:02;;;;;;;0.93;0.93;;;24.20;99.90;;;;;;21064125;28;20219;-66
2021/10/31 15:40:09;;;;;;;0.65;0.32;;;23.30;99.90;;;;;;21062319;28;20249;-67
2021/10/31 15:50:14;;;;;;;0.95;0.43;;;22.70;99.90;;;;;;21062574;28;20255;-67
2021/10/31 16:00:19;;;;;;;0.43;0.43;;;22.90;99.90;;;;;;21043350;28;20226;-66
2021/10/31 16:10:24;;;;;;;0.30;0.30;;;23.00;99.90;;;;;;21060344;28;20224;-67
2021/10/31 16:20:29;;;;;;;0.25;0.25;;;22.90;99.90;;;;;;21060610;28;20188;-68
2021/10/31 16:30:34;;;;;;;0.47;0.43;;;22.30;99.90;;;;;;21058635;28;20228;-68
2021/10/31 16:40:39;;;;;;;0.68;0.55;;;21.80;99.90;;;;;;21066069;28;20246;-67
2021/10/31 16:50:43;;;;;;;0.20;0.10;;;21.60;99.90;;;;;;21071995;28;20269;-66
2021/10/31 17:09:36;;;;;;;0.20;0.13;;;21.30;99.90;;;;;;21021230;28;20283;-68
2021/10/31 17:19:40;;;;;;;0.90;0.90;;;20.80;99.90;;;;;;20964869;28;20216;-68
2021/10/31 17:29:45;;;;;;;1.00;0.53;;;20.60;99.90;;;;;;20944627;28;20193;-68
2021/10/31 17:39:49;;;;;;;5.40;2.57;;;20.30;99.90;;;;;;20963352;28;20197;-67
2021/10/31 17:50:01;;;;;;;2.10;1.30;;;20.10;99.90;;;;;;20958696;28;20204;-68
2021/10/31 18:00:08;;;;;;;2.23;1.20;;;19.70;99.90;;;;;;20944144;28;20232;-69
2021/10/31 18:10:16;;;;;;;1.00;1.00;;;19.50;99.90;;;;;;20962094;28;20189;-69
2021/10/31 18:20:21;;;;;;;5.07;0.83;;;19.40;99.90;;;;;;20910271;28;20681;-68
2021/10/31 18:30:26;;;;;;;1.83;1.73;;;19.40;99.90;;;;;;20903566;28;20197;-68
2021/10/31 18:50:49;;;;;;;3.77;0.90;;;19.60;99.90;;;;;;20798561;23;20573;-66
2021/10/31 19:00:52;;;;;;;1.57;1.23;;;19.50;99.90;;;;;;20570000;28;20294;-69
2021/10/31 19:10:58;;;;;;;0.63;0.63;;;19.40;99.90;;;;;;20576789;28;20616;-68
2021/10/31 19:21:13;;;;;;;2.00;1.83;;;19.20;99.90;;;;;;20574052;28;20277;-68
2021/10/31 19:41:41;;;;;;;0.63;0.63;;;19.00;99.90;;;;;;20573627;28;20220;-68
2021/10/31 19:51:47;;;;;;;1.30;1.20;;;19.00;99.90;;;;;;20572954;28;20250;-68
2021/10/31 20:01:51;;;;;;;2.77;1.23;;;19.00;99.90;;;;;;20572435;28;20687;-68
2021/10/31 20:11:56;;;;;;;4.43;1.17;;;18.90;99.90;;;;;;20572098;28;20645;-67
2021/10/31 20:22:00;;;;;;;1.80;1.13;;;19.00;99.90;;;;;;20570708;28;20584;-69
2021/10/31 20:32:06;;;;;;;5.67;1.60;;;18.90;99.90;;;;;;20571522;28;20271;-68
2021/10/31 20:42:12;;;;;;;1.73;1.63;;;19.10;99.90;;;;;;20550167;28;20715;-67
2021/10/31 20:52:17;;;;;;;6.63;1.03;;;19.00;99.90;;;;;;20567387;28;20196;-68
2021/10/31 21:02:22;;;;;;;0.67;0.60;;;18.80;99.90;;;;;;20570273;28;20595;-68
2021/10/31 21:12:27;;;;;;;1.60;1.50;;;18.80;99.90;;;;;;20570060;28;20196;-68
2021/10/31 21:22:31;;;;;;;0.77;0.77;;;18.80;99.90;;;;;;20569686;28;20315;-68
2021/10/31 21:32:36;;;;;;;1.70;0.80;;;18.70;99.90;;;;;;20570832;28;20215;-68
2021/10/31 21:42:39;;;;;;;0.90;0.90;;;18.70;99.90;;;;;;20567455;28;20823;-69
2021/10/31 21:52:45;;;;;;;1.03;1.00;;;18.60;99.90;;;;;;20559907;28;20207;-67
2021/10/31 22:02:48;;;;;;;0.67;0.67;;;18.60;99.90;;;;;;20580847;28;20468;-68
2021/10/31 22:12:53;;;;;;;0.43;0.40;;;18.30;99.90;;;;;;20581730;28;20203;-68
2021/10/31 22:22:59;;;;;;;0.57;0.57;;;18.20;99.90;;;;;;20581682;28;20226;-68
2021/10/31 22:33:04;;;;;;;0.33;0.30;;;18.00;99.90;;;;;;20579680;28;20200;-70
2021/10/31 22:43:08;;;;;;;0.40;0.20;;;17.90;99.90;;;;;;20577278;28;20628;-68
2021/10/31 22:53:13;;;;;;;0.70;0.70;;;17.90;99.90;;;;;;20580172;28;20202;-69
2021/10/31 23:03:19;;;;;;;0.30;0.10;;;17.80;99.90;;;;;;20561344;28;20732;-70
2021/10/31 23:13:24;;;;;;;0.40;0.40;;;17.90;99.90;;;;;;20575783;28;20220;-69
2021/10/31 23:23:28;;;;;;;0.20;0.00;;;18.00;99.90;;;;;;20642889;28;20218;-69
2021/10/31 23:33:33;;;;;;;0.30;0.27;;;18.10;99.90;;;;;;20639220;28;20204;-69
2021/10/31 23:43:37;;;;;;;2.27;1.23;;;18.10;99.90;;;;;;20642157;28;20254;-69
2021/10/31 23:53:43;;;;;;;0.73;0.73;;;18.40;99.90;;;;;;20643749;28;20303;-69
